Terminal Aerodrome Forecast
Issued by NWS

Home | Current Version | Previous Version | Text Only | Print | Product List | Glossary Off
Versions: 1 2 3 4 5 6 7 8 9 10 11 12 13 14 15 16 17 18

000
FTUS43 KICT 241145
TAFRSL
TAF
KRSL 241145Z 2412/2512 24013KT P6SM SKC
     FM241500 31013KT P6SM SKC
     FM241700 34017KT P6SM SKC
     FM242200 36009KT P6SM SKC=

USA.gov is the U.S. government's official web portal to all federal, state and local government web resources and services.